aviador You're here:

KTCM Decoded Metar

TACOMA in WA, USA
Report Time2017-06-24 00:58:00
UTC Time2017-06-24 01:45:13
Flight Rules vfr VFR
Wind030° at 11 kt
W.Decomp.*RWY 34: 9.5 kt HW 5.5 kt RCW
W.Rank030° ranks 7
Current wind is above 030° avg. (5.7)
Visibility9999 m
Phenomena:N/A
Clouds:N/A
Expected CloudBase > 6,400 ft AGL from Temp-Dew spread
CeilingNone
Temp26°C (ISA +12)
Dew Point10°C (37% RH)
AAT22.1°C
QNH1021 hPa
Density Alt1,565 ft
Elevation322 ft
Report Wrong Elevation
Raw Report
KTCM 240058Z AUTO 03011KT 10SM CLR 26/10 A3014 RMK AO2 SLP210
T02610100 $=

Extra information for KTCM:More info

Metar Taf Metar & Taf Last 4 Metars F.Rules Stats Wind Profile Meteogram Temp Stats Airport Information Weather charts Add Link Nearby VenuesMetar ALERT Operation Metar Decoded Social comments

AIRNAV info for KTCM